sensor_id;sensor_type;location;lat;lon;timestamp;P1;durP1;ratioP1;P2;durP2;ratioP2
12906;SDS011;6521;50.498;8.474;2023-04-01T00:01:44;6.37;;;1.90;;
12906;SDS011;6521;50.498;8.474;2023-04-01T00:04:15;4.87;;;2.03;;
12906;SDS011;6521;50.498;8.474;2023-04-01T00:06:46;6.10;;;2.07;;
12906;SDS011;6521;50.498;8.474;2023-04-01T00:09:17;10.97;;;2.47;;
12906;SDS011;6521;50.498;8.474;2023-04-01T00:11:48;5.77;;;2.70;;
12906;SDS011;6521;50.498;8.474;2023-04-01T00:14:19;7.17;;;1.63;;
12906;SDS011;6521;50.498;8.474;2023-04-01T00:16:50;4.70;;;1.80;;
12906;SDS011;6521;50.498;8.474;2023-04-01T00:19:21;6.80;;;2.47;;
12906;SDS011;6521;50.498;8.474;2023-04-01T00:21:52;5.37;;;1.90;;
12906;SDS011;6521;50.498;8.474;2023-04-01T00:24:22;7.13;;;1.70;;
12906;SDS011;6521;50.498;8.474;2023-04-01T00:26:54;10.30;;;2.83;;
12906;SDS011;6521;50.498;8.474;2023-04-01T00:29:25;4.87;;;1.70;;
12906;SDS011;6521;50.498;8.474;2023-04-01T00:31:59;17.67;;;8.47;;
12906;SDS011;6521;50.498;8.474;2023-04-01T00:34:30;17.60;;;7.90;;
12906;SDS011;6521;50.498;8.474;2023-04-01T00:37:01;5.63;;;2.70;;
12906;SDS011;6521;50.498;8.474;2023-04-01T00:39:32;6.13;;;1.70;;
12906;SDS011;6521;50.498;8.474;2023-04-01T00:42:04;7.93;;;1.87;;
12906;SDS011;6521;50.498;8.474;2023-04-01T00:44:36;5.30;;;1.23;;
12906;SDS011;6521;50.498;8.474;2023-04-01T00:47:07;3.80;;;1.40;;
12906;SDS011;6521;50.498;8.474;2023-04-01T00:49:41;6.43;;;1.77;;
12906;SDS011;6521;50.498;8.474;2023-04-01T00:52:15;4.87;;;1.33;;
12906;SDS011;6521;50.498;8.474;2023-04-01T00:54:50;6.50;;;1.90;;
12906;SDS011;6521;50.498;8.474;2023-04-01T00:57:28;3.10;;;1.30;;
12906;SDS011;6521;50.498;8.474;2023-04-01T01:00:06;7.43;;;1.70;;
12906;SDS011;6521;50.498;8.474;2023-04-01T01:02:43;4.23;;;1.03;;
12906;SDS011;6521;50.498;8.474;2023-04-01T01:05:15;3.17;;;1.20;;
12906;SDS011;6521;50.498;8.474;2023-04-01T01:08:01;6.67;;;1.67;;
12906;SDS011;6521;50.498;8.474;2023-04-01T01:10:44;5.00;;;1.03;;
12906;SDS011;6521;50.498;8.474;2023-04-01T01:13:26;3.73;;;1.00;;
12906;SDS011;6521;50.498;8.474;2023-04-01T01:18:38;6.13;;;1.13;;
12906;SDS011;6521;50.498;8.474;2023-04-01T01:24:17;5.80;;;1.30;;
12906;SDS011;6521;50.498;8.474;2023-04-01T01:26:53;4.70;;;1.37;;
12906;SDS011;6521;50.498;8.474;2023-04-01T01:32:27;4.90;;;1.27;;
12906;SDS011;6521;50.498;8.474;2023-04-01T01:35:28;4.37;;;1.20;;
12906;SDS011;6521;50.498;8.474;2023-04-01T01:38:08;2.00;;;1.00;;
12906;SDS011;6521;50.498;8.474;2023-04-01T01:40:43;6.50;;;1.30;;
12906;SDS011;6521;50.498;8.474;2023-04-01T01:43:20;6.23;;;1.13;;
12906;SDS011;6521;50.498;8.474;2023-04-01T01:45:54;2.27;;;1.07;;
12906;SDS011;6521;50.498;8.474;2023-04-01T01:48:28;4.33;;;1.00;;
12906;SDS011;6521;50.498;8.474;2023-04-01T01:51:00;2.70;;;1.40;;
12906;SDS011;6521;50.498;8.474;2023-04-01T01:53:32;3.60;;;1.37;;
12906;SDS011;6521;50.498;8.474;2023-04-01T01:56:04;4.33;;;1.30;;
12906;SDS011;6521;50.498;8.474;2023-04-01T01:58:44;3.47;;;1.30;;
12906;SDS011;6521;50.498;8.474;2023-04-01T02:01:21;4.40;;;1.30;;
12906;SDS011;6521;50.498;8.474;2023-04-01T02:03:57;5.90;;;1.27;;
12906;SDS011;6521;50.498;8.474;2023-04-01T02:06:30;3.03;;;1.30;;
12906;SDS011;6521;50.498;8.474;2023-04-01T02:09:05;5.77;;;1.37;;
12906;SDS011;6521;50.498;8.474;2023-04-01T02:12:00;4.00;;;1.17;;
12906;SDS011;6521;50.498;8.474;2023-04-01T02:14:42;3.20;;;1.57;;
12906;SDS011;6521;50.498;8.474;2023-04-01T02:17:22;5.07;;;1.50;;
12906;SDS011;6521;50.498;8.474;2023-04-01T02:20:13;3.30;;;1.10;;
12906;SDS011;6521;50.498;8.474;2023-04-01T02:22:51;2.43;;;1.00;;
12906;SDS011;6521;50.498;8.474;2023-04-01T02:25:26;7.40;;;1.00;;
12906;SDS011;6521;50.498;8.474;2023-04-01T02:27:59;7.07;;;1.57;;
12906;SDS011;6521;50.498;8.474;2023-04-01T02:30:31;4.90;;;1.20;;
12906;SDS011;6521;50.498;8.474;2023-04-01T02:33:05;2.77;;;1.10;;
12906;SDS011;6521;50.498;8.474;2023-04-01T02:35:36;5.23;;;1.30;;
12906;SDS011;6521;50.498;8.474;2023-04-01T02:38:11;2.67;;;1.00;;
12906;SDS011;6521;50.498;8.474;2023-04-01T02:40:43;4.47;;;1.20;;
12906;SDS011;6521;50.498;8.474;2023-04-01T02:43:18;6.43;;;0.97;;
12906;SDS011;6521;50.498;8.474;2023-04-01T02:45:50;2.37;;;1.23;;
12906;SDS011;6521;50.498;8.474;2023-04-01T02:48:22;4.57;;;1.20;;
12906;SDS011;6521;50.498;8.474;2023-04-01T02:50:53;3.40;;;0.83;;
12906;SDS011;6521;50.498;8.474;2023-04-01T02:53:24;2.47;;;0.97;;
12906;SDS011;6521;50.498;8.474;2023-04-01T02:55:54;4.33;;;1.17;;
12906;SDS011;6521;50.498;8.474;2023-04-01T02:58:26;2.17;;;1.07;;
12906;SDS011;6521;50.498;8.474;2023-04-01T03:00:57;2.37;;;1.07;;
12906;SDS011;6521;50.498;8.474;2023-04-01T03:03:27;4.30;;;1.10;;
12906;SDS011;6521;50.498;8.474;2023-04-01T03:06:02;4.07;;;1.10;;
12906;SDS011;6521;50.498;8.474;2023-04-01T03:08:36;3.20;;;1.33;;
12906;SDS011;6521;50.498;8.474;2023-04-01T03:11:07;4.67;;;1.10;;
12906;SDS011;6521;50.498;8.474;2023-04-01T03:13:40;4.67;;;1.20;;
12906;SDS011;6521;50.498;8.474;2023-04-01T03:16:11;3.33;;;1.20;;
12906;SDS011;6521;50.498;8.474;2023-04-01T03:18:42;3.57;;;1.20;;
12906;SDS011;6521;50.498;8.474;2023-04-01T03:21:15;2.70;;;1.10;;
12906;SDS011;6521;50.498;8.474;2023-04-01T03:23:48;6.03;;;1.20;;
12906;SDS011;6521;50.498;8.474;2023-04-01T03:26:19;4.60;;;1.30;;
12906;SDS011;6521;50.498;8.474;2023-04-01T03:28:52;3.53;;;1.20;;
12906;SDS011;6521;50.498;8.474;2023-04-01T03:31:23;2.10;;;0.93;;
12906;SDS011;6521;50.498;8.474;2023-04-01T03:33:58;4.43;;;1.30;;
12906;SDS011;6521;50.498;8.474;2023-04-01T03:36:29;4.37;;;1.30;;
12906;SDS011;6521;50.498;8.474;2023-04-01T03:39:00;2.63;;;1.00;;
12906;SDS011;6521;50.498;8.474;2023-04-01T03:41:40;3.60;;;0.90;;
12906;SDS011;6521;50.498;8.474;2023-04-01T03:44:11;2.57;;;1.03;;
12906;SDS011;6521;50.498;8.474;2023-04-01T03:46:43;3.77;;;1.30;;
12906;SDS011;6521;50.498;8.474;2023-04-01T03:49:13;3.97;;;1.23;;
12906;SDS011;6521;50.498;8.474;2023-04-01T03:51:45;2.37;;;1.23;;
12906;SDS011;6521;50.498;8.474;2023-04-01T03:54:16;2.97;;;0.80;;
12906;SDS011;6521;50.498;8.474;2023-04-01T03:56:49;5.73;;;1.23;;
12906;SDS011;6521;50.498;8.474;2023-04-01T03:59:20;4.57;;;1.30;;
12906;SDS011;6521;50.498;8.474;2023-04-01T04:01:52;2.17;;;0.90;;
12906;SDS011;6521;50.498;8.474;2023-04-01T04:04:23;3.60;;;1.00;;
12906;SDS011;6521;50.498;8.474;2023-04-01T04:06:55;3.07;;;1.17;;
12906;SDS011;6521;50.498;8.474;2023-04-01T04:09:27;2.07;;;0.93;;
12906;SDS011;6521;50.498;8.474;2023-04-01T04:12:00;2.13;;;1.07;;
12906;SDS011;6521;50.498;8.474;2023-04-01T04:14:31;4.47;;;1.10;;
12906;SDS011;6521;50.498;8.474;2023-04-01T04:17:04;5.10;;;0.80;;
12906;SDS011;6521;50.498;8.474;2023-04-01T04:19:36;5.70;;;1.33;;
12906;SDS011;6521;50.498;8.474;2023-04-01T04:22:07;2.57;;;1.20;;
12906;SDS011;6521;50.498;8.474;2023-04-01T04:24:38;5.17;;;1.10;;
12906;SDS011;6521;50.498;8.474;2023-04-01T04:27:15;2.07;;;0.90;;
12906;SDS011;6521;50.498;8.474;2023-04-01T04:29:56;3.53;;;1.07;;
12906;SDS011;6521;50.498;8.474;2023-04-01T04:32:26;3.37;;;1.00;;
12906;SDS011;6521;50.498;8.474;2023-04-01T04:34:57;2.73;;;1.27;;
12906;SDS011;6521;50.498;8.474;2023-04-01T04:37:29;3.60;;;0.90;;
12906;SDS011;6521;50.498;8.474;2023-04-01T04:39:59;2.30;;;1.10;;
12906;SDS011;6521;50.498;8.474;2023-04-01T04:42:30;2.93;;;1.20;;
12906;SDS011;6521;50.498;8.474;2023-04-01T04:45:07;3.13;;;1.30;;
12906;SDS011;6521;50.498;8.474;2023-04-01T04:47:40;3.90;;;1.23;;
12906;SDS011;6521;50.498;8.474;2023-04-01T04:50:11;1.80;;;0.73;;
12906;SDS011;6521;50.498;8.474;2023-04-01T04:52:43;1.80;;;0.90;;
12906;SDS011;6521;50.498;8.474;2023-04-01T04:55:14;1.87;;;0.80;;
12906;SDS011;6521;50.498;8.474;2023-04-01T04:57:47;2.33;;;1.10;;
12906;SDS011;6521;50.498;8.474;2023-04-01T05:00:18;2.43;;;0.80;;
12906;SDS011;6521;50.498;8.474;2023-04-01T05:03:11;4.50;;;1.30;;
12906;SDS011;6521;50.498;8.474;2023-04-01T05:05:48;1.40;;;1.00;;
12906;SDS011;6521;50.498;8.474;2023-04-01T05:08:20;3.17;;;0.90;;
12906;SDS011;6521;50.498;8.474;2023-04-01T05:10:51;2.27;;;1.10;;
12906;SDS011;6521;50.498;8.474;2023-04-01T05:13:22;2.30;;;1.10;;
12906;SDS011;6521;50.498;8.474;2023-04-01T05:15:53;2.60;;;0.87;;
12906;SDS011;6521;50.498;8.474;2023-04-01T05:18:24;1.60;;;1.00;;
12906;SDS011;6521;50.498;8.474;2023-04-01T05:20:55;1.97;;;0.87;;
12906;SDS011;6521;50.498;8.474;2023-04-01T05:23:26;2.63;;;0.87;;
12906;SDS011;6521;50.498;8.474;2023-04-01T05:25:57;2.93;;;1.40;;
12906;SDS011;6521;50.498;8.474;2023-04-01T05:28:28;1.70;;;1.03;;
12906;SDS011;6521;50.498;8.474;2023-04-01T05:30:59;3.37;;;0.80;;
12906;SDS011;6521;50.498;8.474;2023-04-01T05:33:35;0.97;;;0.87;;
12906;SDS011;6521;50.498;8.474;2023-04-01T05:36:08;2.10;;;1.07;;
12906;SDS011;6521;50.498;8.474;2023-04-01T05:38:43;2.87;;;1.17;;
12906;SDS011;6521;50.498;8.474;2023-04-01T05:41:16;2.10;;;0.80;;
12906;SDS011;6521;50.498;8.474;2023-04-01T05:43:49;2.57;;;0.90;;
12906;SDS011;6521;50.498;8.474;2023-04-01T05:46:43;2.40;;;0.93;;
12906;SDS011;6521;50.498;8.474;2023-04-01T05:49:30;1.30;;;1.10;;
12906;SDS011;6521;50.498;8.474;2023-04-01T05:52:01;0.87;;;0.60;;
12906;SDS011;6521;50.498;8.474;2023-04-01T05:54:32;1.10;;;0.70;;
12906;SDS011;6521;50.498;8.474;2023-04-01T05:57:03;1.10;;;0.70;;
12906;SDS011;6521;50.498;8.474;2023-04-01T05:59:34;3.93;;;0.93;;
12906;SDS011;6521;50.498;8.474;2023-04-01T06:02:05;1.83;;;0.97;;
12906;SDS011;6521;50.498;8.474;2023-04-01T06:04:40;2.77;;;1.33;;
12906;SDS011;6521;50.498;8.474;2023-04-01T06:07:12;3.90;;;0.90;;
12906;SDS011;6521;50.498;8.474;2023-04-01T06:09:44;2.17;;;0.80;;
12906;SDS011;6521;50.498;8.474;2023-04-01T06:31:58;2.33;;;0.87;;
12906;SDS011;6521;50.498;8.474;2023-04-01T06:41:24;3.67;;;0.80;;
12906;SDS011;6521;50.498;8.474;2023-04-01T06:43:58;0.70;;;0.70;;
12906;SDS011;6521;50.498;8.474;2023-04-01T06:46:55;2.03;;;0.80;;
12906;SDS011;6521;50.498;8.474;2023-04-01T06:53:19;1.40;;;0.80;;
12906;SDS011;6521;50.498;8.474;2023-04-01T06:56:19;0.60;;;0.60;;
12906;SDS011;6521;50.498;8.474;2023-04-01T06:59:04;1.33;;;0.73;;
12906;SDS011;6521;50.498;8.474;2023-04-01T07:04:21;2.30;;;0.90;;
12906;SDS011;6521;50.498;8.474;2023-04-01T07:06:58;5.40;;;1.00;;
12906;SDS011;6521;50.498;8.474;2023-04-01T07:09:33;0.83;;;0.70;;
12906;SDS011;6521;50.498;8.474;2023-04-01T07:12:47;1.77;;;0.90;;
12906;SDS011;6521;50.498;8.474;2023-04-01T07:15:41;2.47;;;1.00;;
12906;SDS011;6521;50.498;8.474;2023-04-01T07:18:17;4.83;;;0.90;;
12906;SDS011;6521;50.498;8.474;2023-04-01T07:20:52;1.03;;;0.80;;
12906;SDS011;6521;50.498;8.474;2023-04-01T07:23:26;0.97;;;0.70;;
12906;SDS011;6521;50.498;8.474;2023-04-01T07:26:28;2.70;;;0.77;;
12906;SDS011;6521;50.498;8.474;2023-04-01T07:29:09;0.90;;;0.60;;
12906;SDS011;6521;50.498;8.474;2023-04-01T07:34:50;1.57;;;0.80;;
12906;SDS011;6521;50.498;8.474;2023-04-01T07:48:55;0.70;;;0.70;;
12906;SDS011;6521;50.498;8.474;2023-04-01T07:51:46;1.80;;;0.60;;
12906;SDS011;6521;50.498;8.474;2023-04-01T07:54:37;0.83;;;0.80;;
12906;SDS011;6521;50.498;8.474;2023-04-01T07:57:15;0.97;;;0.70;;
12906;SDS011;6521;50.498;8.474;2023-04-01T08:15:40;3.80;;;0.90;;
12906;SDS011;6521;50.498;8.474;2023-04-01T08:18:19;0.50;;;0.50;;
12906;SDS011;6521;50.498;8.474;2023-04-01T08:21:15;1.43;;;0.80;;
12906;SDS011;6521;50.498;8.474;2023-04-01T08:23:52;1.27;;;1.00;;
12906;SDS011;6521;50.498;8.474;2023-04-01T08:26:45;2.07;;;0.87;;
12906;SDS011;6521;50.498;8.474;2023-04-01T08:29:30;2.17;;;0.60;;
12906;SDS011;6521;50.498;8.474;2023-04-01T08:33:22;0.73;;;0.73;;
12906;SDS011;6521;50.498;8.474;2023-04-01T08:35:38;2.23;;;0.90;;
12906;SDS011;6521;50.498;8.474;2023-04-01T08:38:23;0.73;;;0.60;;
12906;SDS011;6521;50.498;8.474;2023-04-01T08:41:19;0.70;;;0.70;;
12906;SDS011;6521;50.498;8.474;2023-04-01T08:47:18;0.60;;;0.60;;
12906;SDS011;6521;50.498;8.474;2023-04-01T08:50:06;0.83;;;0.73;;
12906;SDS011;6521;50.498;8.474;2023-04-01T08:53:00;1.33;;;0.90;;
12906;SDS011;6521;50.498;8.474;2023-04-01T09:11:16;0.87;;;0.70;;
12906;SDS011;6521;50.498;8.474;2023-04-01T09:14:06;2.20;;;0.80;;
12906;SDS011;6521;50.498;8.474;2023-04-01T09:22:09;1.00;;;0.90;;
12906;SDS011;6521;50.498;8.474;2023-04-01T09:27:56;0.73;;;0.60;;
12906;SDS011;6521;50.498;8.474;2023-04-01T09:33:17;1.27;;;1.17;;
12906;SDS011;6521;50.498;8.474;2023-04-01T09:38:56;1.93;;;1.00;;
12906;SDS011;6521;50.498;8.474;2023-04-01T09:41:35;1.07;;;0.80;;
12906;SDS011;6521;50.498;8.474;2023-04-01T09:44:47;1.27;;;0.67;;
12906;SDS011;6521;50.498;8.474;2023-04-01T09:47:31;1.10;;;1.00;;
12906;SDS011;6521;50.498;8.474;2023-04-01T10:13:17;4.97;;;0.80;;
12906;SDS011;6521;50.498;8.474;2023-04-01T10:16:03;0.60;;;0.60;;
12906;SDS011;6521;50.498;8.474;2023-04-01T10:34:24;0.70;;;0.70;;
12906;SDS011;6521;50.498;8.474;2023-04-01T10:43:23;2.57;;;0.70;;
12906;SDS011;6521;50.498;8.474;2023-04-01T11:07:53;0.60;;;0.60;;
12906;SDS011;6521;50.498;8.474;2023-04-01T11:13:59;0.70;;;0.70;;
12906;SDS011;6521;50.498;8.474;2023-04-01T11:25:09;1.00;;;0.90;;
12906;SDS011;6521;50.498;8.474;2023-04-01T11:31:17;1.00;;;1.00;;
12906;SDS011;6521;50.498;8.474;2023-04-01T11:34:20;1.00;;;0.90;;
12906;SDS011;6521;50.498;8.474;2023-04-01T11:39:39;10.13;;;1.40;;
12906;SDS011;6521;50.498;8.474;2023-04-01T11:46:23;1.00;;;1.00;;
12906;SDS011;6521;50.498;8.474;2023-04-01T12:00:34;1.40;;;1.07;;
12906;SDS011;6521;50.498;8.474;2023-04-01T12:03:37;1.00;;;1.00;;
12906;SDS011;6521;50.498;8.474;2023-04-01T12:06:37;1.90;;;1.10;;
12906;SDS011;6521;50.498;8.474;2023-04-01T12:15:03;3.43;;;2.20;;
12906;SDS011;6521;50.498;8.474;2023-04-01T12:18:15;2.07;;;1.70;;
12906;SDS011;6521;50.498;8.474;2023-04-01T12:24:42;2.03;;;1.40;;
12906;SDS011;6521;50.498;8.474;2023-04-01T12:35:30;2.33;;;1.50;;
12906;SDS011;6521;50.498;8.474;2023-04-01T12:38:15;4.80;;;1.53;;
12906;SDS011;6521;50.498;8.474;2023-04-01T12:41:13;2.13;;;1.77;;
12906;SDS011;6521;50.498;8.474;2023-04-01T12:49:53;1.63;;;1.53;;
12906;SDS011;6521;50.498;8.474;2023-04-01T12:52:33;1.73;;;1.40;;
12906;SDS011;6521;50.498;8.474;2023-04-01T13:20:45;1.90;;;1.70;;
12906;SDS011;6521;50.498;8.474;2023-04-01T13:23:48;8.23;;;6.67;;
12906;SDS011;6521;50.498;8.474;2023-04-01T13:30:07;2.53;;;1.80;;
12906;SDS011;6521;50.498;8.474;2023-04-01T13:32:19;1.50;;;1.40;;
12906;SDS011;6521;50.498;8.474;2023-04-01T13:38:16;1.80;;;1.70;;
12906;SDS011;6521;50.498;8.474;2023-04-01T13:43:34;1.30;;;1.20;;
12906;SDS011;6521;50.498;8.474;2023-04-01T13:46:29;3.93;;;1.80;;
12906;SDS011;6521;50.498;8.474;2023-04-01T13:49:29;2.07;;;1.33;;
12906;SDS011;6521;50.498;8.474;2023-04-01T13:58:15;1.48;;;1.33;;
12906;SDS011;6521;50.498;8.474;2023-04-01T14:15:11;3.57;;;2.10;;
12906;SDS011;6521;50.498;8.474;2023-04-01T14:18:13;1.87;;;1.53;;
12906;SDS011;6521;50.498;8.474;2023-04-01T14:26:40;2.47;;;1.90;;
12906;SDS011;6521;50.498;8.474;2023-04-01T14:32:31;4.30;;;1.80;;
12906;SDS011;6521;50.498;8.474;2023-04-01T14:40:44;1.90;;;1.80;;
12906;SDS011;6521;50.498;8.474;2023-04-01T14:44:28;4.37;;;1.30;;
12906;SDS011;6521;50.498;8.474;2023-04-01T14:52:23;1.70;;;1.50;;
12906;SDS011;6521;50.498;8.474;2023-04-01T14:55:01;1.60;;;1.50;;
12906;SDS011;6521;50.498;8.474;2023-04-01T14:57:59;1.90;;;1.30;;
12906;SDS011;6521;50.498;8.474;2023-04-01T15:00:48;1.70;;;1.60;;
12906;SDS011;6521;50.498;8.474;2023-04-01T15:06:27;7.00;;;1.37;;
12906;SDS011;6521;50.498;8.474;2023-04-01T15:11:54;1.47;;;1.30;;
12906;SDS011;6521;50.498;8.474;2023-04-01T15:14:39;2.50;;;1.97;;
12906;SDS011;6521;50.498;8.474;2023-04-01T15:26:05;1.70;;;1.60;;
12906;SDS011;6521;50.498;8.474;2023-04-01T15:41:00;1.17;;;1.10;;
12906;SDS011;6521;50.498;8.474;2023-04-01T15:54:47;3.17;;;1.30;;
12906;SDS011;6521;50.498;8.474;2023-04-01T15:57:40;1.60;;;1.40;;
12906;SDS011;6521;50.498;8.474;2023-04-01T16:00:27;1.30;;;1.10;;
12906;SDS011;6521;50.498;8.474;2023-04-01T16:11:33;1.10;;;0.87;;
12906;SDS011;6521;50.498;8.474;2023-04-01T16:17:01;1.80;;;1.60;;
12906;SDS011;6521;50.498;8.474;2023-04-01T16:19:49;0.77;;;0.77;;
12906;SDS011;6521;50.498;8.474;2023-04-01T16:22:25;1.80;;;1.00;;
12906;SDS011;6521;50.498;8.474;2023-04-01T16:25:19;1.00;;;1.00;;
12906;SDS011;6521;50.498;8.474;2023-04-01T16:27:58;1.13;;;0.90;;
12906;SDS011;6521;50.498;8.474;2023-04-01T16:30:48;1.00;;;1.00;;
12906;SDS011;6521;50.498;8.474;2023-04-01T16:33:31;5.17;;;3.60;;
12906;SDS011;6521;50.498;8.474;2023-04-01T16:42:46;1.10;;;1.00;;
12906;SDS011;6521;50.498;8.474;2023-04-01T16:48:17;1.60;;;1.50;;
12906;SDS011;6521;50.498;8.474;2023-04-01T16:50:59;1.30;;;1.20;;
12906;SDS011;6521;50.498;8.474;2023-04-01T16:53:41;1.23;;;1.07;;
12906;SDS011;6521;50.498;8.474;2023-04-01T16:56:23;1.57;;;1.30;;
12906;SDS011;6521;50.498;8.474;2023-04-01T16:59:29;2.33;;;1.90;;
12906;SDS011;6521;50.498;8.474;2023-04-01T17:02:02;2.20;;;1.43;;
12906;SDS011;6521;50.498;8.474;2023-04-01T17:04:44;1.40;;;1.30;;
12906;SDS011;6521;50.498;8.474;2023-04-01T17:15:35;4.27;;;1.40;;
12906;SDS011;6521;50.498;8.474;2023-04-01T17:21:16;3.43;;;1.80;;
12906;SDS011;6521;50.498;8.474;2023-04-01T17:29:57;5.67;;;1.60;;
12906;SDS011;6521;50.498;8.474;2023-04-01T17:35:20;2.47;;;2.10;;
12906;SDS011;6521;50.498;8.474;2023-04-01T17:40:57;1.77;;;1.50;;
12906;SDS011;6521;50.498;8.474;2023-04-01T17:49:47;1.80;;;1.70;;
12906;SDS011;6521;50.498;8.474;2023-04-01T18:06:27;3.00;;;1.57;;
12906;SDS011;6521;50.498;8.474;2023-04-01T18:09:17;1.70;;;1.60;;
12906;SDS011;6521;50.498;8.474;2023-04-01T18:14:38;2.33;;;1.50;;
12906;SDS011;6521;50.498;8.474;2023-04-01T18:23:28;1.47;;;1.37;;
12906;SDS011;6521;50.498;8.474;2023-04-01T18:26:10;1.93;;;1.83;;
12906;SDS011;6521;50.498;8.474;2023-04-01T18:28:49;2.53;;;1.60;;
12906;SDS011;6521;50.498;8.474;2023-04-01T18:31:32;2.00;;;1.40;;
12906;SDS011;6521;50.498;8.474;2023-04-01T18:34:12;1.67;;;1.40;;
12906;SDS011;6521;50.498;8.474;2023-04-01T18:36:54;1.50;;;1.40;;
12906;SDS011;6521;50.498;8.474;2023-04-01T18:39:40;1.70;;;1.40;;
12906;SDS011;6521;50.498;8.474;2023-04-01T18:45:43;2.73;;;1.93;;
12906;SDS011;6521;50.498;8.474;2023-04-01T18:51:11;1.60;;;1.50;;
12906;SDS011;6521;50.498;8.474;2023-04-01T18:53:48;1.80;;;1.70;;
12906;SDS011;6521;50.498;8.474;2023-04-01T18:56:27;1.80;;;1.70;;
12906;SDS011;6521;50.498;8.474;2023-04-01T18:59:06;1.83;;;1.40;;
12906;SDS011;6521;50.498;8.474;2023-04-01T19:01:47;2.57;;;1.60;;
12906;SDS011;6521;50.498;8.474;2023-04-01T19:05:30;2.87;;;1.50;;
12906;SDS011;6521;50.498;8.474;2023-04-01T19:07:43;2.03;;;1.60;;
12906;SDS011;6521;50.498;8.474;2023-04-01T19:20:59;1.33;;;1.23;;
12906;SDS011;6521;50.498;8.474;2023-04-01T19:30:09;1.33;;;1.23;;
12906;SDS011;6521;50.498;8.474;2023-04-01T19:33:07;1.53;;;1.30;;
12906;SDS011;6521;50.498;8.474;2023-04-01T19:38:53;1.30;;;1.20;;
12906;SDS011;6521;50.498;8.474;2023-04-01T19:44:27;1.30;;;1.20;;
12906;SDS011;6521;50.498;8.474;2023-04-01T19:47:29;1.77;;;1.30;;
12906;SDS011;6521;50.498;8.474;2023-04-01T19:50:20;1.60;;;1.30;;
12906;SDS011;6521;50.498;8.474;2023-04-01T19:56:19;2.57;;;1.30;;
12906;SDS011;6521;50.498;8.474;2023-04-01T20:09:53;2.23;;;1.87;;
12906;SDS011;6521;50.498;8.474;2023-04-01T20:15:37;2.13;;;1.67;;
12906;SDS011;6521;50.498;8.474;2023-04-01T20:18:19;2.07;;;1.80;;
12906;SDS011;6521;50.498;8.474;2023-04-01T20:20:56;1.90;;;1.80;;
12906;SDS011;6521;50.498;8.474;2023-04-01T20:23:41;2.90;;;2.10;;
12906;SDS011;6521;50.498;8.474;2023-04-01T20:26:19;2.50;;;2.07;;
12906;SDS011;6521;50.498;8.474;2023-04-01T20:38:06;2.97;;;2.63;;
12906;SDS011;6521;50.498;8.474;2023-04-01T20:40:57;1.97;;;1.80;;
12906;SDS011;6521;50.498;8.474;2023-04-01T20:46:45;2.57;;;2.23;;
12906;SDS011;6521;50.498;8.474;2023-04-01T20:49:39;2.37;;;1.77;;
12906;SDS011;6521;50.498;8.474;2023-04-01T20:57:25;3.40;;;2.27;;
12906;SDS011;6521;50.498;8.474;2023-04-01T21:03:13;2.60;;;2.03;;
12906;SDS011;6521;50.498;8.474;2023-04-01T21:06:03;3.70;;;3.20;;
12906;SDS011;6521;50.498;8.474;2023-04-01T21:08:53;3.10;;;2.23;;
12906;SDS011;6521;50.498;8.474;2023-04-01T21:12:30;3.13;;;2.53;;
12906;SDS011;6521;50.498;8.474;2023-04-01T21:15:10;2.10;;;1.90;;
12906;SDS011;6521;50.498;8.474;2023-04-01T21:17:56;1.73;;;1.60;;
12906;SDS011;6521;50.498;8.474;2023-04-01T21:20:47;1.73;;;1.63;;
12906;SDS011;6521;50.498;8.474;2023-04-01T21:27:00;1.70;;;1.60;;
12906;SDS011;6521;50.498;8.474;2023-04-01T21:30:29;1.77;;;1.67;;
12906;SDS011;6521;50.498;8.474;2023-04-01T21:53:19;2.50;;;2.30;;
12906;SDS011;6521;50.498;8.474;2023-04-01T22:05:15;3.10;;;2.80;;
12906;SDS011;6521;50.498;8.474;2023-04-01T22:10:44;2.63;;;2.43;;
12906;SDS011;6521;50.498;8.474;2023-04-01T22:13:36;3.30;;;3.00;;
12906;SDS011;6521;50.498;8.474;2023-04-01T22:22:04;4.77;;;3.87;;
12906;SDS011;6521;50.498;8.474;2023-04-01T22:27:31;3.63;;;3.33;;
12906;SDS011;6521;50.498;8.474;2023-04-01T22:32:50;7.23;;;3.43;;
12906;SDS011;6521;50.498;8.474;2023-04-01T22:35:32;5.50;;;3.27;;
12906;SDS011;6521;50.498;8.474;2023-04-01T22:38:18;4.30;;;3.90;;
12906;SDS011;6521;50.498;8.474;2023-04-01T22:43:56;3.13;;;2.83;;
12906;SDS011;6521;50.498;8.474;2023-04-01T22:49:27;3.07;;;2.67;;
12906;SDS011;6521;50.498;8.474;2023-04-01T22:52:11;2.70;;;2.50;;
12906;SDS011;6521;50.498;8.474;2023-04-01T22:54:58;3.37;;;2.77;;
12906;SDS011;6521;50.498;8.474;2023-04-01T23:00:11;2.27;;;2.00;;
12906;SDS011;6521;50.498;8.474;2023-04-01T23:02:48;3.00;;;2.70;;
12906;SDS011;6521;50.498;8.474;2023-04-01T23:05:30;2.80;;;2.60;;
12906;SDS011;6521;50.498;8.474;2023-04-01T23:11:04;2.77;;;2.17;;
12906;SDS011;6521;50.498;8.474;2023-04-01T23:13:38;5.27;;;2.30;;
12906;SDS011;6521;50.498;8.474;2023-04-01T23:16:13;3.13;;;2.43;;
12906;SDS011;6521;50.498;8.474;2023-04-01T23:21:42;2.60;;;2.40;;
12906;SDS011;6521;50.498;8.474;2023-04-01T23:24:25;2.60;;;2.40;;
12906;SDS011;6521;50.498;8.474;2023-04-01T23:27:17;4.50;;;2.50;;
12906;SDS011;6521;50.498;8.474;2023-04-01T23:29:53;4.50;;;2.50;;
12906;SDS011;6521;50.498;8.474;2023-04-01T23:32:24;2.80;;;2.60;;
12906;SDS011;6521;50.498;8.474;2023-04-01T23:34:57;4.53;;;3.00;;
12906;SDS011;6521;50.498;8.474;2023-04-01T23:37:29;3.10;;;2.90;;
12906;SDS011;6521;50.498;8.474;2023-04-01T23:40:00;2.90;;;2.60;;
12906;SDS011;6521;50.498;8.474;2023-04-01T23:42:32;3.23;;;2.70;;
12906;SDS011;6521;50.498;8.474;2023-04-01T23:45:13;2.87;;;2.47;;
12906;SDS011;6521;50.498;8.474;2023-04-01T23:47:52;3.30;;;2.97;;
12906;SDS011;6521;50.498;8.474;2023-04-01T23:50:23;3.70;;;2.43;;
12906;SDS011;6521;50.498;8.474;2023-04-01T23:55:33;4.20;;;2.83;;
